createdAt,value
2023-03-22T00:01:22.224Z,30.23
2023-03-22T00:03:51.128Z,33.67
2023-03-22T00:06:19.084Z,28.95
2023-03-22T00:08:50.466Z,30.35
2023-03-22T00:11:18.977Z,30.05
2023-03-22T00:13:46.976Z,31.50
2023-03-22T00:16:15.254Z,34.20
2023-03-22T00:18:42.458Z,29.02
2023-03-22T00:21:15.643Z,30.20
2023-03-22T00:23:43.726Z,28.38
2023-03-22T00:26:11.818Z,33.00
2023-03-22T00:28:39.170Z,33.35
2023-03-22T00:31:07.534Z,32.78
2023-03-22T00:33:35.068Z,26.17
2023-03-22T00:36:05.619Z,28.67
2023-03-22T00:38:42.783Z,29.27
2023-03-22T00:41:12.322Z,28.10
2023-03-22T00:43:39.713Z,31.05
2023-03-22T00:46:07.121Z,34.38
2023-03-22T00:48:34.331Z,30.17
2023-03-22T00:51:01.833Z,27.88
2023-03-22T00:53:29.127Z,28.73
2023-03-22T00:55:57.360Z,26.35
2023-03-22T00:58:25.084Z,26.40
2023-03-22T01:00:52.313Z,28.50
2023-03-22T01:03:21.816Z,27.52
2023-03-22T01:05:49.374Z,26.77
2023-03-22T01:08:16.650Z,28.90
2023-03-22T01:10:44.813Z,29.08
2023-03-22T01:13:12.938Z,26.73
2023-03-22T01:15:41.318Z,22.30
2023-03-22T01:18:08.949Z,24.70
2023-03-22T01:20:36.417Z,30.05
2023-03-22T01:23:04.259Z,24.88
2023-03-22T01:25:31.619Z,23.67
2023-03-22T01:27:58.945Z,22.55
2023-03-22T01:30:26.070Z,23.70
2023-03-22T01:32:53.340Z,24.27
2023-03-22T01:35:20.541Z,26.23
2023-03-22T01:37:47.879Z,22.75
2023-03-22T01:40:15.859Z,24.35
2023-03-22T01:42:43.024Z,21.13
2023-03-22T01:45:33.044Z,22.38
2023-03-22T01:48:05.202Z,26.40
2023-03-22T01:50:32.766Z,22.90
2023-03-22T01:53:01.325Z,24.17
2023-03-22T01:55:28.565Z,20.63
2023-03-22T01:57:56.473Z,22.55
2023-03-22T02:00:23.661Z,26.95
2023-03-22T02:02:52.371Z,21.80
2023-03-22T02:05:22.503Z,24.65
2023-03-22T02:07:50.589Z,24.75
2023-03-22T02:10:21.147Z,20.50
2023-03-22T02:13:09.443Z,18.60
2023-03-22T02:15:36.466Z,19.83
2023-03-22T02:18:28.250Z,29.00
2023-03-22T02:21:07.110Z,22.88
2023-03-22T02:23:34.189Z,21.13
2023-03-22T02:26:22.336Z,17.92
2023-03-22T02:29:01.662Z,21.75
2023-03-22T02:31:46.169Z,18.35
2023-03-22T02:34:25.231Z,19.35
2023-03-22T02:37:11.201Z,20.05
2023-03-22T02:39:54.319Z,19.30
2023-03-22T02:42:54.401Z,18.85
2023-03-22T02:45:24.504Z,18.08
2023-03-22T02:48:18.920Z,18.42
2023-03-22T02:50:53.585Z,19.55
2023-03-22T02:53:28.064Z,18.08
2023-03-22T02:56:01.283Z,17.48
2023-03-22T02:58:38.294Z,16.33
2023-03-22T03:01:10.186Z,20.23
2023-03-22T03:03:39.652Z,20.23
2023-03-22T03:06:17.290Z,20.55
2023-03-22T03:08:46.761Z,16.13
2023-03-22T03:11:14.183Z,17.60
2023-03-22T03:13:42.042Z,23.45
2023-03-22T03:16:13.558Z,18.15
2023-03-22T03:19:17.609Z,19.35
2023-03-22T03:21:50.320Z,14.88
2023-03-22T03:24:51.326Z,15.32
2023-03-22T03:27:27.360Z,17.52
2023-03-22T03:30:05.751Z,16.35
2023-03-22T03:32:37.824Z,16.52
2023-03-22T03:35:22.379Z,17.23
2023-03-22T03:37:53.835Z,16.45
2023-03-22T03:40:27.760Z,21.40
2023-03-22T03:42:57.855Z,15.95
2023-03-22T03:45:25.563Z,17.45
2023-03-22T03:47:57.854Z,15.25
2023-03-22T03:50:26.720Z,19.92
2023-03-22T03:52:55.141Z,17.92
2023-03-22T03:55:23.452Z,19.98
2023-03-22T03:57:50.898Z,17.80
2023-03-22T04:00:18.341Z,17.17
2023-03-22T04:02:45.396Z,20.52
2023-03-22T04:05:13.617Z,17.60
2023-03-22T04:07:40.662Z,22.65
2023-03-22T04:10:08.433Z,18.63
2023-03-22T04:12:35.889Z,19.25
2023-03-22T04:15:03.090Z,21.60
2023-03-22T04:17:32.069Z,20.83
2023-03-22T04:19:59.230Z,16.25
2023-03-22T04:22:26.731Z,20.58
2023-03-22T04:24:53.840Z,19.45
2023-03-22T04:27:22.361Z,20.92
2023-03-22T04:29:51.105Z,18.25
2023-03-22T04:32:19.631Z,17.95
2023-03-22T04:34:46.626Z,18.20
2023-03-22T04:37:14.565Z,21.67
2023-03-22T04:39:42.516Z,18.17
2023-03-22T04:42:09.801Z,22.02
2023-03-22T04:44:36.919Z,18.23
2023-03-22T04:47:04.318Z,18.75
2023-03-22T04:49:31.463Z,17.13
2023-03-22T04:51:58.684Z,16.98
2023-03-22T04:54:25.846Z,17.10
2023-03-22T04:56:52.899Z,19.52
2023-03-22T04:59:20.693Z,20.30
2023-03-22T05:01:48.606Z,19.95
2023-03-22T05:04:16.636Z,22.33
2023-03-22T05:06:43.987Z,20.83
2023-03-22T05:09:11.935Z,18.73
2023-03-22T05:11:40.556Z,19.42
2023-03-22T05:14:09.077Z,18.15
2023-03-22T05:16:36.363Z,21.90
2023-03-22T05:19:03.872Z,19.00
2023-03-22T05:21:36.761Z,19.55
2023-03-22T05:24:04.190Z,17.10
2023-03-22T05:26:31.360Z,19.10
2023-03-22T05:28:58.745Z,28.35
2023-03-22T05:31:28.716Z,20.02
2023-03-22T05:33:55.898Z,18.50
2023-03-22T05:36:23.661Z,19.92
2023-03-22T05:38:51.023Z,17.90
2023-03-22T05:41:19.327Z,16.95
2023-03-22T05:43:46.420Z,20.42
2023-03-22T05:46:13.614Z,21.30
2023-03-22T05:48:41.452Z,21.52
2023-03-22T05:51:10.221Z,18.23
2023-03-22T05:53:37.312Z,19.25
2023-03-22T05:56:04.797Z,22.35
2023-03-22T05:58:32.283Z,20.85
2023-03-22T06:01:06.065Z,19.63
2023-03-22T06:03:33.478Z,19.90
2023-03-22T06:06:00.901Z,19.30
2023-03-22T06:08:28.108Z,18.30
2023-03-22T06:10:55.188Z,18.85
2023-03-22T06:13:22.292Z,17.00
2023-03-22T06:15:49.395Z,16.90
2023-03-22T06:18:16.571Z,20.25
2023-03-22T06:20:44.049Z,19.20
2023-03-22T06:23:11.132Z,18.35
2023-03-22T06:25:38.338Z,19.55
2023-03-22T06:28:08.534Z,18.10
2023-03-22T06:30:35.788Z,15.82
2023-03-22T06:33:05.164Z,16.33
2023-03-22T06:35:33.251Z,15.65
2023-03-22T06:38:00.914Z,14.38
2023-03-22T06:40:28.400Z,17.42
2023-03-22T06:42:55.510Z,14.25
2023-03-22T06:45:23.085Z,18.80
2023-03-22T06:47:51.020Z,17.45
2023-03-22T06:50:18.352Z,17.40
2023-03-22T06:52:45.398Z,18.98
2023-03-22T06:55:12.492Z,16.30
2023-03-22T06:57:39.587Z,17.88
2023-03-22T07:00:07.383Z,16.88
2023-03-22T07:02:34.417Z,17.30
2023-03-22T07:05:01.818Z,17.40
2023-03-22T07:07:28.831Z,18.90
2023-03-22T07:09:57.028Z,14.98
2023-03-22T07:12:24.364Z,18.48
2023-03-22T07:14:51.590Z,24.60
2023-03-22T07:17:18.646Z,22.42
2023-03-22T07:19:45.692Z,24.25
2023-03-22T07:22:13.035Z,22.40
2023-03-22T07:24:53.810Z,25.83
2023-03-22T07:27:27.874Z,24.85
2023-03-22T07:29:54.973Z,21.52
2023-03-22T07:32:22.109Z,22.02
2023-03-22T07:34:49.190Z,22.33
2023-03-22T07:37:16.340Z,23.73
2023-03-22T07:39:43.446Z,24.92
2023-03-22T07:42:10.485Z,26.42
2023-03-22T07:44:37.560Z,31.20
2023-03-22T07:47:04.957Z,32.97
2023-03-22T07:49:32.183Z,20.40
2023-03-22T07:51:59.763Z,34.45
2023-03-22T07:54:33.859Z,27.80
2023-03-22T07:57:01.774Z,23.20
2023-03-22T07:59:29.012Z,20.08
2023-03-22T08:01:56.125Z,25.55
2023-03-22T08:04:23.357Z,32.53
2023-03-22T08:06:51.336Z,27.38
2023-03-22T08:09:18.754Z,27.75
2023-03-22T08:11:45.966Z,28.27
2023-03-22T08:14:13.227Z,24.25
2023-03-22T08:16:41.663Z,22.70
2023-03-22T08:19:08.869Z,27.48
2023-03-22T08:21:37.011Z,24.40
2023-03-22T08:24:05.629Z,31.40
2023-03-22T08:26:33.329Z,33.08
2023-03-22T08:29:02.031Z,22.52
2023-03-22T08:31:29.553Z,24.70
2023-03-22T08:33:56.844Z,23.05
2023-03-22T08:36:24.127Z,29.10
2023-03-22T08:38:51.721Z,33.22
2023-03-22T08:41:19.211Z,29.40
2023-03-22T08:43:46.545Z,33.97
2023-03-22T08:46:13.681Z,33.38
2023-03-22T08:48:42.647Z,27.25
2023-03-22T08:51:09.841Z,21.88
2023-03-22T08:53:36.940Z,24.40
2023-03-22T08:56:04.843Z,40.20
2023-03-22T08:58:31.859Z,32.78
2023-03-22T09:00:59.178Z,23.85
2023-03-22T09:03:26.452Z,26.80
2023-03-22T09:05:54.026Z,27.85
2023-03-22T09:08:21.256Z,28.50
2023-03-22T09:10:52.452Z,23.08
2023-03-22T09:13:20.114Z,28.02
2023-03-22T09:15:47.512Z,30.88
2023-03-22T09:18:16.239Z,30.55
2023-03-22T09:20:45.741Z,29.52
2023-03-22T09:23:13.769Z,34.33
2023-03-22T09:25:43.912Z,26.40
2023-03-22T09:28:11.453Z,31.45
2023-03-22T09:30:38.675Z,32.65
2023-03-22T09:33:07.166Z,27.67
2023-03-22T09:35:34.343Z,30.27
2023-03-22T09:38:03.669Z,26.25
2023-03-22T09:40:32.704Z,26.02
2023-03-22T09:43:06.118Z,23.33
2023-03-22T09:45:40.016Z,22.98
2023-03-22T09:48:18.256Z,26.80
2023-03-22T09:50:53.875Z,23.00
2023-03-22T09:53:23.977Z,23.20
2023-03-22T09:55:59.022Z,21.92
2023-03-22T09:58:49.831Z,16.60
2023-03-22T10:01:35.742Z,17.73
2023-03-22T10:04:36.094Z,20.67
2023-03-22T10:07:12.776Z,17.70
2023-03-22T10:09:55.967Z,16.98
2023-03-22T10:12:29.954Z,13.65
2023-03-22T10:14:58.864Z,12.60
2023-03-22T10:17:28.207Z,14.20
2023-03-22T10:20:16.541Z,12.63
2023-03-22T10:22:46.530Z,16.02
2023-03-22T10:25:19.657Z,11.13
2023-03-22T10:27:50.510Z,10.57
2023-03-22T10:30:25.591Z,9.38
2023-03-22T10:32:58.314Z,9.40
2023-03-22T10:35:25.979Z,8.13
2023-03-22T10:37:55.729Z,8.55
2023-03-22T10:40:30.881Z,7.80
2023-03-22T10:43:06.160Z,8.98
2023-03-22T10:45:36.522Z,10.23
2023-03-22T10:48:09.579Z,10.75
2023-03-22T10:50:40.030Z,9.70
2023-03-22T10:53:12.557Z,8.90
2023-03-22T10:55:41.967Z,6.90
2023-03-22T10:58:16.605Z,7.47
2023-03-22T11:00:56.076Z,9.43
2023-03-22T11:03:52.319Z,8.45
2023-03-22T11:06:26.609Z,13.50
2023-03-22T11:08:59.340Z,15.50
2023-03-22T11:11:28.020Z,9.93
2023-03-22T11:14:05.421Z,17.58
2023-03-22T11:16:47.582Z,19.15
2023-03-22T11:19:22.593Z,12.15
2023-03-22T11:21:51.710Z,12.02
2023-03-22T11:24:19.384Z,11.80
2023-03-22T11:27:06.771Z,9.50
2023-03-22T11:29:44.215Z,12.98
2023-03-22T11:32:38.335Z,9.40
2023-03-22T11:35:13.984Z,9.85
2023-03-22T11:37:46.387Z,7.70
2023-03-22T11:40:20.182Z,7.55
2023-03-22T11:43:09.499Z,6.30
2023-03-22T11:45:41.252Z,6.93
2023-03-22T11:48:27.359Z,10.43
2023-03-22T11:50:59.168Z,10.52
2023-03-22T11:53:28.871Z,13.05
2023-03-22T11:56:11.906Z,16.15
2023-03-22T11:59:06.697Z,10.80
2023-03-22T12:01:43.115Z,5.63
2023-03-22T12:04:17.246Z,5.93
2023-03-22T12:06:44.620Z,6.93
2023-03-22T12:09:33.111Z,14.00
2023-03-22T12:12:02.311Z,19.55
2023-03-22T12:14:37.841Z,10.60
2023-03-22T12:17:11.136Z,11.13
2023-03-22T12:20:01.066Z,13.35
2023-03-22T12:22:32.298Z,12.23
2023-03-22T12:25:01.552Z,12.38
2023-03-22T12:27:36.050Z,8.30
2023-03-22T12:30:08.622Z,12.00
2023-03-22T12:32:42.164Z,9.98
2023-03-22T12:35:18.280Z,8.43
2023-03-22T12:37:51.089Z,13.65
2023-03-22T12:40:38.476Z,8.82
2023-03-22T12:43:22.397Z,12.00
2023-03-22T12:45:55.532Z,13.85
2023-03-22T12:48:40.066Z,8.90
2023-03-22T12:51:12.009Z,9.93
2023-03-22T12:53:54.627Z,10.85
2023-03-22T12:56:26.301Z,10.35
2023-03-22T12:59:01.797Z,14.55
2023-03-22T13:01:39.407Z,9.23
2023-03-22T13:04:37.119Z,9.73
2023-03-22T13:07:13.680Z,9.32
2023-03-22T13:09:49.456Z,8.98
2023-03-22T13:12:16.668Z,9.63
2023-03-22T13:14:52.635Z,7.47
2023-03-22T13:17:25.310Z,14.68
2023-03-22T13:20:00.734Z,10.00
2023-03-22T13:22:29.123Z,9.13
2023-03-22T13:25:12.605Z,14.20
2023-03-22T13:27:45.499Z,10.45
2023-03-22T13:30:24.533Z,15.75
2023-03-22T13:32:55.300Z,9.27
2023-03-22T13:37:52.040Z,11.90
2023-03-22T13:41:01.636Z,10.43
2023-03-22T13:43:35.765Z,6.65
2023-03-22T13:46:07.707Z,8.68
2023-03-22T13:48:46.958Z,12.10
2023-03-22T13:51:23.682Z,9.43
2023-03-22T13:54:06.938Z,7.70
2023-03-22T13:57:00.307Z,11.48
2023-03-22T13:59:27.521Z,11.77
2023-03-22T14:02:18.802Z,12.38
2023-03-22T14:04:56.044Z,7.63
2023-03-22T14:07:40.772Z,7.95
2023-03-22T14:10:26.137Z,15.32
2023-03-22T14:13:26.596Z,9.85
2023-03-22T14:15:59.076Z,10.60
2023-03-22T14:18:34.136Z,11.13
2023-03-22T14:21:19.791Z,12.43
